»·PEaware :: ASA258 KSBP-KSAN

ASA258 :: KSBP-KSAN

FLIGHT INFORMATION

Flight Status: Arrived
Operator:
Alaska Airlines
More flights by this operator :: More flights under this callsign
Pilot: Brad M. (22842)
Aircraft: AIRBUS A320
(A320)
More flights by this aircraft type
Origin: KSBP San Luis Co Regl
United States
Destination: KSAN San Diego Intl-Lindbergh
United States
More flights between these airports :: More routes between these airports
Route: RZS V597 MZB
File this flight plan on PilotEdge
Remarks:
Altitude:
(Current/Filed)
16,000ft
Speed:
(Current/Filed)
400kts
Departed: 07-Feb-19 05:01 PM
Arrived: 07-Feb-19 05:50 PM
Distance/Time
Traveled:
228nm/0:49
Distance/Time
To Go:
Arrived

Flight Plot

Page will automatically refresh every two minutes.


Map Options




Map Legend


Flown Route
Filed Route
Departure Airport
Arrival Airport
Navaid (VOR, NDB)
Fix

Horizontal Profiles

Position Reports

Time Latitude Longitude Heading Altitude Ground
Speed
07-Feb-19 16:42 35.238004 -120.637481 359 185ft 0kts
07-Feb-19 16:43 35.238004 -120.637481 359 185ft 0kts
07-Feb-19 16:44 35.238004 -120.637481 359 185ft 0kts
07-Feb-19 16:45 35.238004 -120.637481 359 185ft 0kts
07-Feb-19 16:46 35.238004 -120.637481 359 185ft 0kts
07-Feb-19 16:47 35.238004 -120.637481 359 185ft 0kts
07-Feb-19 16:48 35.238004 -120.637481 359 185ft 0kts
07-Feb-19 16:49 35.238004 -120.637481 359 185ft 0kts
07-Feb-19 16:50 35.238004 -120.637481 359 185ft 0kts
07-Feb-19 16:51 35.238004 -120.637481 359 185ft 0kts
07-Feb-19 16:52 35.238004 -120.637481 359 185ft 0kts
07-Feb-19 16:53 35.237800 -120.637521 22 185ft 2kts
07-Feb-19 16:54 35.237451 -120.638080 85 185ft 1kts
07-Feb-19 16:55 35.237448 -120.638162 91 185ft 0kts
07-Feb-19 16:56 35.237448 -120.638162 91 185ft 0kts
07-Feb-19 16:57 35.237087 -120.637693 208 185ft 7kts
07-Feb-19 16:58 35.235307 -120.635553 125 185ft 12kts
07-Feb-19 16:59 35.233172 -120.632486 212 185ft 0kts
07-Feb-19 17:00 35.243242 -120.651370 304 506ft 161kts
07-Feb-19 17:01 35.270448 -120.697523 303 3319ft 183kts
07-Feb-19 17:02 35.283712 -120.758527 237 5852ft 221kts
07-Feb-19 17:03 35.219419 -120.764499 153 7887ft 279kts
07-Feb-19 17:04 35.160096 -120.704023 129 9261ft 289kts
07-Feb-19 17:05 35.105726 -120.624917 129 11611ft 336kts
07-Feb-19 17:06 35.039518 -120.529182 129 12975ft 389kts
07-Feb-19 17:07 34.968575 -120.426650 129 15131ft 401kts
07-Feb-19 17:08 34.896436 -120.322726 130 16013ft 387kts
07-Feb-19 17:09 34.833098 -120.231738 130 16011ft 384kts
07-Feb-19 17:10 34.760884 -120.128383 130 16003ft 384kts
07-Feb-19 17:11 34.691240 -120.028966 130 15995ft 384kts
07-Feb-19 17:12 34.621726 -119.930014 130 15993ft 384kts
07-Feb-19 17:13 34.552127 -119.831218 130 15993ft 384kts
07-Feb-19 17:14 34.500700 -119.720500 101 15991ft 383kts
07-Feb-19 17:15 34.479457 -119.593000 101 15988ft 395kts
07-Feb-19 17:16 34.455840 -119.454262 101 15988ft 428kts
07-Feb-19 17:17 34.431720 -119.313129 101 15988ft 428kts
07-Feb-19 17:18 34.407904 -119.175024 101 15988ft 428kts
07-Feb-19 17:19 34.383429 -119.034144 101 15988ft 428kts
07-Feb-19 17:20 34.358676 -118.893916 104 15984ft 427kts
07-Feb-19 17:21 34.315704 -118.761033 112 15979ft 427kts
07-Feb-19 17:22 34.255937 -118.648706 140 15977ft 426kts
07-Feb-19 17:23 34.198505 -118.592527 140 15978ft 427kts
07-Feb-19 17:24 34.104105 -118.499673 140 15978ft 428kts
07-Feb-19 17:25 34.014597 -118.411729 140 15979ft 429kts
07-Feb-19 17:26 33.925728 -118.324646 141 15979ft 429kts
07-Feb-19 17:27 33.836260 -118.237224 141 15978ft 429kts
07-Feb-19 17:28 33.723040 -118.126941 141 15978ft 429kts
07-Feb-19 17:29 33.630772 -118.037355 141 15975ft 429kts
07-Feb-19 17:30 33.538453 -117.947973 141 15965ft 429kts
07-Feb-19 17:31 33.447726 -117.860373 141 15953ft 428kts
07-Feb-19 17:32 33.354903 -117.771008 141 15952ft 429kts
07-Feb-19 17:33 33.262746 -117.682529 141 15637ft 422kts
07-Feb-19 17:34 33.176496 -117.599936 141 13942ft 416kts
07-Feb-19 17:35 33.098842 -117.512674 129 13179ft 364kts
07-Feb-19 17:36 33.038362 -117.426987 129 12186ft 326kts
07-Feb-19 17:37 32.982489 -117.348834 130 10429ft 319kts
07-Feb-19 17:39 32.930118 -117.275152 130 9465ft 292kts
07-Feb-19 17:40 32.882752 -117.208994 130 7659ft 278kts
07-Feb-19 17:41 32.833518 -117.140367 130 6473ft 268kts
07-Feb-19 17:42 32.788650 -117.077873 130 6072ft 233kts
07-Feb-19 17:43 32.764837 -117.007348 105 5416ft 232kts
07-Feb-19 17:44 32.728118 -116.955083 171 4754ft 211kts
07-Feb-19 17:45 32.689891 -116.992447 268 3378ft 195kts
07-Feb-19 17:46 32.699357 -117.048869 287 2616ft 171kts
07-Feb-19 17:47 32.711612 -117.098970 286 1631ft 136kts
07-Feb-19 17:48 32.721734 -117.140404 286 911ft 131kts
07-Feb-19 17:49 32.731564 -117.181466 286 48ft 128kts
07-Feb-19 17:50 32.734962 -117.198763 251 21ft 8kts
07-Feb-19 17:51 32.734980 -117.199770 284 21ft 10kts
07-Feb-19 17:52 32.734177 -117.202760 244 19ft 6kts
07-Feb-19 17:53 32.734138 -117.203362 270 19ft 0kts

Navigation Log

Ident Type
Flight plan parsing failed, navigation log unavailable